createdAt,value
2018-02-09T00:00:43.527Z,0.00
2018-02-09T00:01:43.555Z,0.00
2018-02-09T00:02:44.026Z,0.00
2018-02-09T00:03:43.667Z,0.00
2018-02-09T00:04:43.712Z,0.00
2018-02-09T00:05:43.976Z,0.00
2018-02-09T00:06:43.761Z,0.00
2018-02-09T00:07:43.795Z,0.00
2018-02-09T00:08:43.820Z,0.00
2018-02-09T00:09:43.799Z,0.00
2018-02-09T00:10:43.946Z,0.00
2018-02-09T00:11:43.920Z,0.00
2018-02-09T00:12:44.183Z,0.00
2018-02-09T00:14:43.966Z,0.00
2018-02-09T00:15:43.978Z,0.00
2018-02-09T00:16:44.003Z,0.00
2018-02-09T00:17:44.044Z,0.00
2018-02-09T00:18:44.127Z,0.00
2018-02-09T00:19:44.391Z,0.00
2018-02-09T00:20:44.277Z,0.00
2018-02-09T00:21:44.207Z,0.00
2018-02-09T00:22:44.181Z,0.00
2018-02-09T00:23:44.240Z,0.00
2018-02-09T00:24:44.301Z,0.00
2018-02-09T00:25:44.269Z,0.00
2018-02-09T00:26:44.603Z,0.00
2018-02-09T00:27:44.335Z,0.00
2018-02-09T00:28:44.563Z,0.00
2018-02-09T00:29:44.550Z,0.00
2018-02-09T00:30:44.476Z,0.00
2018-02-09T00:31:44.515Z,0.00
2018-02-09T00:32:44.481Z,0.00
2018-02-09T00:33:44.866Z,0.00
2018-02-09T00:34:44.543Z,0.00
2018-02-09T00:35:44.580Z,0.00
2018-02-09T00:36:44.682Z,0.00
2018-02-09T00:37:44.628Z,0.00
2018-02-09T00:38:44.666Z,0.00
2018-02-09T00:39:44.772Z,0.00
2018-02-09T00:40:45.021Z,0.00
2018-02-09T00:41:44.752Z,0.00
2018-02-09T00:42:44.790Z,0.00
2018-02-09T00:43:44.876Z,0.00
2018-02-09T00:45:44.867Z,0.00
2018-02-09T00:46:44.954Z,0.00
2018-02-09T00:48:45.255Z,0.00
2018-02-09T00:49:44.986Z,0.00
2018-02-09T00:50:45.018Z,0.00
2018-02-09T00:51:45.096Z,0.00
2018-02-09T00:52:45.075Z,0.00
2018-02-09T00:53:45.107Z,0.00
2018-02-09T00:54:45.435Z,0.00
2018-02-09T00:55:45.166Z,0.00
2018-02-09T00:56:45.200Z,0.00
2018-02-09T00:57:45.224Z,0.00
2018-02-09T00:58:45.258Z,0.00
2018-02-09T00:59:45.285Z,0.00
2018-02-09T01:00:45.614Z,0.00
2018-02-09T01:01:45.348Z,0.00
2018-02-09T01:02:45.374Z,0.00
2018-02-09T01:03:45.407Z,0.00
2018-02-09T01:04:45.432Z,0.00
2018-02-09T01:05:45.463Z,0.00
2018-02-09T01:06:45.796Z,0.00
2018-02-09T01:07:45.525Z,0.00
2018-02-09T01:08:45.556Z,0.00
2018-02-09T01:09:45.584Z,0.00
2018-02-09T01:10:45.824Z,0.00
2018-02-09T01:11:45.641Z,0.00
2018-02-09T01:12:46.222Z,0.00
2018-02-09T01:13:45.702Z,0.00
2018-02-09T01:14:45.736Z,0.00
2018-02-09T01:15:45.777Z,0.00
2018-02-09T01:16:45.791Z,0.00
2018-02-09T01:17:45.821Z,0.00
2018-02-09T01:18:46.162Z,0.00
2018-02-09T01:19:45.940Z,0.00
2018-02-09T01:20:45.907Z,0.00
2018-02-09T01:21:45.937Z,0.00
2018-02-09T01:22:45.978Z,0.00
2018-02-09T01:23:45.999Z,0.00
2018-02-09T01:24:46.328Z,0.00
2018-02-09T01:25:46.123Z,0.00
2018-02-09T01:26:46.142Z,0.00
2018-02-09T01:27:46.370Z,0.00
2018-02-09T01:28:46.147Z,0.00
2018-02-09T01:29:46.176Z,0.00
2018-02-09T01:30:46.508Z,0.00
2018-02-09T01:31:46.272Z,0.00
2018-02-09T01:32:46.269Z,0.00
2018-02-09T01:33:46.356Z,0.00
2018-02-09T01:34:46.328Z,0.00
2018-02-09T01:35:46.354Z,0.00
2018-02-09T01:36:46.685Z,0.00
2018-02-09T01:37:46.480Z,0.00
2018-02-09T01:40:46.503Z,0.00
2018-02-09T01:41:46.739Z,0.00
2018-02-09T01:42:46.869Z,0.00
2018-02-09T01:43:46.645Z,0.00
2018-02-09T01:44:46.623Z,0.00
2018-02-09T01:45:46.657Z,0.00
2018-02-09T01:46:46.688Z,0.00
2018-02-09T01:47:46.713Z,0.00
2018-02-09T01:48:47.043Z,0.00
2018-02-09T01:49:46.777Z,0.00
2018-02-09T01:50:46.805Z,0.00
2018-02-09T01:51:46.887Z,0.00
2018-02-09T01:52:46.864Z,0.00
2018-02-09T01:53:46.890Z,0.00
2018-02-09T01:54:47.231Z,0.00
2018-02-09T01:55:46.964Z,0.00
2018-02-09T01:56:46.983Z,0.00
2018-02-09T01:57:47.018Z,0.00
2018-02-09T01:58:47.039Z,0.00
2018-02-09T01:59:47.072Z,0.00
2018-02-09T02:00:47.408Z,0.00
2018-02-09T02:01:47.128Z,0.00
2018-02-09T02:02:47.211Z,0.00
2018-02-09T02:03:47.192Z,0.00
2018-02-09T02:04:47.219Z,0.00
2018-02-09T02:05:47.349Z,0.00
2018-02-09T02:06:47.582Z,0.00
2018-02-09T02:08:47.390Z,0.00
2018-02-09T02:09:47.371Z,0.00
2018-02-09T02:10:47.399Z,0.00
2018-02-09T02:11:47.426Z,0.00
2018-02-09T02:12:47.457Z,0.00
2018-02-09T02:13:47.849Z,0.00
2018-02-09T02:14:47.520Z,0.00
2018-02-09T02:15:47.546Z,0.00
2018-02-09T02:16:47.609Z,0.00
2018-02-09T02:17:47.607Z,0.00
2018-02-09T02:18:47.639Z,0.00
2018-02-09T02:19:47.670Z,0.00
2018-02-09T02:20:47.994Z,0.00
2018-02-09T02:21:47.879Z,0.00
2018-02-09T02:22:47.756Z,0.00
2018-02-09T02:23:47.788Z,0.00
2018-02-09T02:24:47.920Z,0.00
2018-02-09T02:25:47.926Z,0.00
2018-02-09T02:26:47.877Z,0.00
2018-02-09T02:27:48.204Z,0.00
2018-02-09T02:28:48.463Z,0.00
2018-02-09T02:29:47.976Z,0.00
2018-02-09T02:30:48.052Z,0.00
2018-02-09T02:31:48.022Z,0.00
2018-02-09T02:32:48.059Z,0.00
2018-02-09T02:33:48.081Z,0.00
2018-02-09T02:34:48.562Z,0.00
2018-02-09T02:35:48.142Z,0.00
2018-02-09T02:36:48.174Z,0.00
2018-02-09T02:37:48.198Z,0.00
2018-02-09T02:38:48.230Z,0.00
2018-02-09T02:39:48.261Z,0.00
2018-02-09T02:40:48.297Z,0.00
2018-02-09T02:41:48.622Z,0.00
2018-02-09T02:42:48.346Z,0.00
2018-02-09T02:43:48.430Z,0.00
2018-02-09T02:44:48.414Z,0.00
2018-02-09T02:45:48.540Z,0.00
2018-02-09T02:46:48.471Z,0.00
2018-02-09T02:47:48.495Z,0.00
2018-02-09T02:48:48.828Z,0.00
2018-02-09T02:49:48.553Z,0.00
2018-02-09T02:50:48.589Z,0.00
2018-02-09T02:53:33.789Z,0.00
2018-02-09T02:54:45.999Z,0.00
2018-02-09T02:55:33.239Z,0.00
2018-02-09T02:56:33.371Z,0.00
2018-02-09T02:57:33.558Z,0.00
2018-02-09T02:58:33.340Z,0.00
2018-02-09T02:59:33.655Z,0.00
2018-02-09T03:00:33.386Z,0.00
2018-02-09T03:01:33.422Z,0.00
2018-02-09T03:02:33.489Z,0.00
2018-02-09T03:03:33.522Z,0.00
2018-02-09T03:04:33.521Z,0.00
2018-02-09T03:05:33.833Z,0.00
2018-02-09T03:06:33.565Z,0.00
2018-02-09T03:07:33.591Z,0.00
2018-02-09T03:08:33.622Z,0.00
2018-02-09T03:09:33.652Z,0.00
2018-02-09T03:10:33.729Z,0.00
2018-02-09T03:11:34.010Z,0.00
2018-02-09T03:12:33.741Z,0.00
2018-02-09T03:13:33.769Z,0.00
2018-02-09T03:14:33.806Z,0.00
2018-02-09T03:15:33.830Z,0.00
2018-02-09T03:16:33.861Z,0.00
2018-02-09T03:17:33.893Z,0.00
2018-02-09T03:18:34.274Z,0.00
2018-02-09T03:19:33.950Z,0.00
2018-02-09T03:20:34.029Z,0.00
2018-02-09T03:21:34.007Z,0.00
2018-02-09T03:22:34.037Z,0.00
2018-02-09T03:23:34.068Z,0.00
2018-02-09T03:24:34.098Z,0.00
2018-02-09T03:25:34.524Z,0.00
2018-02-09T03:26:34.210Z,0.00
2018-02-09T03:27:34.191Z,0.00
2018-02-09T03:28:34.215Z,0.00
2018-02-09T03:29:34.248Z,0.00
2018-02-09T03:30:34.540Z,0.00
2018-02-09T03:31:34.311Z,0.00
2018-02-09T03:32:34.637Z,0.00
2018-02-09T03:33:34.363Z,0.00
2018-02-09T03:34:34.417Z,0.00
2018-02-09T03:35:34.422Z,0.00
2018-02-09T03:36:34.455Z,0.00
2018-02-09T03:37:34.483Z,0.00
2018-02-09T03:38:34.511Z,0.00
2018-02-09T03:39:34.839Z,0.00
2018-02-09T03:40:34.623Z,0.00
2018-02-09T03:41:34.602Z,0.00
2018-02-09T03:42:34.630Z,0.00
2018-02-09T03:43:34.666Z,0.00
2018-02-09T03:44:34.689Z,0.00
2018-02-09T03:45:34.724Z,0.00
2018-02-09T03:46:35.054Z,0.00
2018-02-09T03:47:34.782Z,0.00
2018-02-09T03:48:34.811Z,0.00
2018-02-09T03:49:34.841Z,0.00
2018-02-09T03:50:35.285Z,0.00
2018-02-09T03:51:34.898Z,0.00
2018-02-09T03:52:34.932Z,0.00
2018-02-09T03:53:35.257Z,0.00
2018-02-09T03:54:34.994Z,0.00
2018-02-09T03:55:35.015Z,0.00
2018-02-09T03:56:35.049Z,0.00
2018-02-09T03:57:35.078Z,0.00
2018-02-09T03:58:35.110Z,0.00
2018-02-09T03:59:35.204Z,0.00
2018-02-09T04:00:35.471Z,0.00
2018-02-09T04:01:35.399Z,0.00
2018-02-09T04:02:35.227Z,0.00
2018-02-09T04:03:35.292Z,0.00
2018-02-09T04:04:35.342Z,0.00
2018-02-09T04:05:35.316Z,0.00
2018-02-09T04:06:35.379Z,0.00
2018-02-09T04:07:35.688Z,0.00
2018-02-09T04:08:35.403Z,0.00
2018-02-09T04:09:35.439Z,0.00
2018-02-09T04:10:35.464Z,0.00
2018-02-09T04:11:35.497Z,0.00
2018-02-09T04:12:35.535Z,0.00
2018-02-09T04:13:35.554Z,0.00
2018-02-09T04:14:35.879Z,0.00
2018-02-09T04:15:35.661Z,0.00
2018-02-09T04:16:35.664Z,0.00
2018-02-09T04:17:35.670Z,0.00
2018-02-09T04:18:35.711Z,0.00
2018-02-09T04:19:35.730Z,0.00
2018-02-09T04:20:35.788Z,0.00
2018-02-09T04:21:36.090Z,0.00
2018-02-09T04:22:35.830Z,0.00
2018-02-09T04:23:35.861Z,0.00
2018-02-09T04:24:35.908Z,0.00
2018-02-09T04:25:35.920Z,0.00
2018-02-09T04:26:35.936Z,0.00
2018-02-09T04:27:35.972Z,0.00
2018-02-09T04:28:36.296Z,0.00
2018-02-09T04:29:36.024Z,0.00
2018-02-09T04:30:36.153Z,0.00
2018-02-09T04:31:36.089Z,0.00
2018-02-09T04:32:36.117Z,0.00
2018-02-09T04:33:36.141Z,0.00
2018-02-09T04:34:36.489Z,0.00
2018-02-09T04:35:36.253Z,0.00
2018-02-09T04:36:36.231Z,0.00
2018-02-09T04:37:36.264Z,0.00
2018-02-09T04:38:36.290Z,0.00
2018-02-09T04:39:36.319Z,0.00
2018-02-09T04:40:36.769Z,0.00
2018-02-09T04:41:36.386Z,0.00
2018-02-09T04:42:36.415Z,0.00
2018-02-09T04:43:36.442Z,0.00
2018-02-09T04:44:36.469Z,0.00
2018-02-09T04:45:36.513Z,0.00
2018-02-09T04:46:36.830Z,0.00
2018-02-09T04:47:36.567Z,0.00
2018-02-09T04:48:36.597Z,0.00
2018-02-09T04:49:36.618Z,0.00
2018-02-09T04:50:36.697Z,0.00
2018-02-09T04:51:36.683Z,0.00
2018-02-09T04:52:37.060Z,0.00
2018-02-09T04:53:36.737Z,0.00
2018-02-09T04:54:36.765Z,0.00
2018-02-09T04:55:36.795Z,0.00
2018-02-09T04:56:36.842Z,0.00
2018-02-09T04:57:36.856Z,0.00
2018-02-09T04:58:37.202Z,0.00
2018-02-09T04:59:36.912Z,0.00
2018-02-09T05:00:36.941Z,0.00
2018-02-09T05:01:36.978Z,0.00
2018-02-09T05:02:37.017Z,0.00
2018-02-09T05:03:37.035Z,0.00
2018-02-09T05:04:37.366Z,0.00
2018-02-09T05:05:37.094Z,0.00
2018-02-09T05:06:37.123Z,0.00
2018-02-09T05:07:37.159Z,0.00
2018-02-09T05:08:37.180Z,0.00
2018-02-09T05:09:37.206Z,0.00
2018-02-09T05:10:37.594Z,0.00
2018-02-09T05:11:37.272Z,0.00
2018-02-09T05:12:37.308Z,0.00
2018-02-09T05:13:37.335Z,0.00
2018-02-09T05:14:37.364Z,0.00
2018-02-09T05:15:37.386Z,0.00
2018-02-09T05:16:37.723Z,0.00
2018-02-09T05:17:37.448Z,0.00
2018-02-09T05:18:37.492Z,0.00
2018-02-09T05:19:37.509Z,0.00
2018-02-09T05:20:37.539Z,0.00
2018-02-09T05:21:37.568Z,0.00
2018-02-09T05:22:37.896Z,0.00
2018-02-09T05:23:37.630Z,0.00
2018-02-09T05:24:37.653Z,0.00
2018-02-09T05:25:37.739Z,0.00
2018-02-09T05:26:37.767Z,0.00
2018-02-09T05:27:37.747Z,0.00
2018-02-09T05:28:38.094Z,0.00
2018-02-09T05:29:37.800Z,0.00
2018-02-09T05:30:37.829Z,0.00
2018-02-09T05:31:37.861Z,0.00
2018-02-09T05:32:37.892Z,0.00
2018-02-09T05:33:37.919Z,0.00
2018-02-09T05:34:38.257Z,0.00
2018-02-09T05:35:37.978Z,0.00
2018-02-09T05:36:38.009Z,0.00
2018-02-09T05:37:38.037Z,0.00
2018-02-09T05:38:38.108Z,0.00
2018-02-09T05:39:38.295Z,0.00
2018-02-09T05:40:38.439Z,0.00
2018-02-09T05:41:38.201Z,0.00
2018-02-09T05:42:38.187Z,0.00
2018-02-09T05:43:38.226Z,0.00
2018-02-09T05:44:38.251Z,0.00
2018-02-09T05:45:38.276Z,0.00
2018-02-09T05:46:38.321Z,0.00
2018-02-09T05:47:38.635Z,0.00
2018-02-09T05:48:38.366Z,0.00
2018-02-09T05:49:38.407Z,0.00
2018-02-09T05:50:38.475Z,0.00
2018-02-09T05:51:38.472Z,0.00
2018-02-09T05:52:38.495Z,0.00
2018-02-09T05:53:38.510Z,0.00
2018-02-09T05:54:38.994Z,0.00
2018-02-09T05:55:38.634Z,0.00
2018-02-09T05:56:38.603Z,0.00
2018-02-09T05:57:38.638Z,0.00
2018-02-09T05:58:38.668Z,0.00
2018-02-09T05:59:38.741Z,0.00
2018-02-09T06:00:38.726Z,0.00
2018-02-09T06:01:39.051Z,0.00
2018-02-09T06:02:38.777Z,0.00
2018-02-09T06:03:38.809Z,0.00
2018-02-09T06:04:38.844Z,0.00
2018-02-09T06:05:38.925Z,0.00
2018-02-09T06:06:38.895Z,0.00
2018-02-09T06:07:38.935Z,0.00
2018-02-09T06:08:39.264Z,0.00
2018-02-09T06:09:38.987Z,0.00
2018-02-09T06:10:39.016Z,0.00
2018-02-09T06:11:39.052Z,0.00
2018-02-09T06:12:39.080Z,0.00
2018-02-09T06:13:39.148Z,0.00
2018-02-09T06:14:39.133Z,0.00
2018-02-09T06:15:39.465Z,0.00
2018-02-09T06:16:39.251Z,0.00
2018-02-09T06:17:39.228Z,0.00
2018-02-09T06:18:39.252Z,0.00
2018-02-09T06:19:39.285Z,0.00
2018-02-09T06:20:39.311Z,0.00
2018-02-09T06:21:39.390Z,0.00
2018-02-09T06:22:39.672Z,0.00
2018-02-09T06:23:39.401Z,0.00
2018-02-09T06:24:39.429Z,0.00
2018-02-09T06:25:39.476Z,0.00
2018-02-09T06:26:39.492Z,0.00
2018-02-09T06:27:39.672Z,0.00
2018-02-09T06:28:39.575Z,0.00
2018-02-09T06:29:39.877Z,0.00
2018-02-09T06:30:39.624Z,0.00
2018-02-09T06:31:39.645Z,4.00
2018-02-09T06:32:39.666Z,4.00
2018-02-09T06:33:39.695Z,4.00
2018-02-09T06:34:39.728Z,4.00
2018-02-09T06:35:39.757Z,4.00
2018-02-09T06:36:40.085Z,8.00
2018-02-09T06:37:39.816Z,4.00
2018-02-09T06:38:39.843Z,8.00
2018-02-09T06:39:39.879Z,8.00
2018-02-09T06:40:39.902Z,8.00
2018-02-09T06:41:39.942Z,8.00
2018-02-09T06:42:39.961Z,12.00
2018-02-09T06:43:40.503Z,12.00
2018-02-09T06:44:40.023Z,16.00
2018-02-09T06:45:40.051Z,20.00
2018-02-09T06:46:40.082Z,24.00
2018-02-09T06:47:40.108Z,24.00
2018-02-09T06:48:40.141Z,32.00
2018-02-09T06:49:40.170Z,36.00
2018-02-09T06:50:40.497Z,40.00
2018-02-09T06:51:40.227Z,44.00
2018-02-09T06:52:40.258Z,52.00
2018-02-09T06:53:40.285Z,60.00
2018-02-09T06:54:40.365Z,68.00
2018-02-09T06:55:40.375Z,72.00
2018-02-09T06:56:40.679Z,84.00
2018-02-09T06:57:40.405Z,92.00
2018-02-09T06:58:40.435Z,104.00
2018-02-09T06:59:40.477Z,112.00
2018-02-09T07:00:40.496Z,120.00
2018-02-09T07:01:40.530Z,132.00
2018-02-09T07:02:40.852Z,140.00
2018-02-09T07:03:40.591Z,152.00
2018-02-09T07:04:40.618Z,164.00
2018-02-09T07:05:41.094Z,176.00
2018-02-09T07:06:40.672Z,188.00
2018-02-09T07:07:40.701Z,204.00
2018-02-09T07:08:41.046Z,216.00
2018-02-09T07:09:40.768Z,228.00
2018-02-09T07:10:40.790Z,248.00
2018-02-09T07:11:40.819Z,260.00
2018-02-09T07:12:40.862Z,272.00
2018-02-09T07:13:40.881Z,292.00
2018-02-09T07:14:41.212Z,304.00
2018-02-09T07:15:40.997Z,320.00
2018-02-09T07:16:40.968Z,332.00
2018-02-09T07:17:41.002Z,352.00
2018-02-09T07:18:41.036Z,368.00
2018-02-09T07:19:41.056Z,384.00
2018-02-09T07:20:41.392Z,400.00
2018-02-09T07:21:41.122Z,416.00
2018-02-09T07:22:41.146Z,432.00
2018-02-09T07:23:41.184Z,448.00
2018-02-09T07:24:41.203Z,460.00
2018-02-09T07:25:41.234Z,476.00
2018-02-09T07:26:41.561Z,488.00
2018-02-09T07:27:41.350Z,504.00
2018-02-09T07:28:41.328Z,516.00
2018-02-09T07:29:41.354Z,528.00
2018-02-09T07:30:41.385Z,540.00
2018-02-09T07:31:41.562Z,556.00
2018-02-09T07:32:41.743Z,576.00
2018-02-09T07:33:41.477Z,588.00
2018-02-09T07:34:41.518Z,604.00
2018-02-09T07:35:41.582Z,620.00
2018-02-09T07:36:41.559Z,636.00
2018-02-09T07:37:41.593Z,652.00
2018-02-09T07:38:41.919Z,664.00
2018-02-09T07:39:41.662Z,676.00
2018-02-09T07:40:41.678Z,692.00
2018-02-09T07:41:41.718Z,704.00
2018-02-09T07:42:41.737Z,720.00
2018-02-09T07:43:41.771Z,732.00
2018-02-09T07:44:42.101Z,744.00
2018-02-09T07:45:41.929Z,756.00
2018-02-09T07:46:41.857Z,772.00
2018-02-09T07:47:41.898Z,784.00
2018-02-09T07:48:41.947Z,800.00
2018-02-09T07:49:41.950Z,816.00
2018-02-09T07:50:42.287Z,824.00
2018-02-09T07:51:42.008Z,836.00
2018-02-09T07:52:42.037Z,848.00
2018-02-09T07:53:42.081Z,860.00
2018-02-09T07:54:42.094Z,872.00
2018-02-09T07:55:42.149Z,876.00
2018-02-09T07:56:42.452Z,880.00
2018-02-09T07:57:42.188Z,888.00
2018-02-09T07:58:42.213Z,896.00
2018-02-09T07:59:42.260Z,900.00
2018-02-09T08:00:42.334Z,904.00
2018-02-09T08:01:42.304Z,912.00
2018-02-09T08:02:42.639Z,916.00
2018-02-09T08:03:42.413Z,928.00
2018-02-09T08:04:42.395Z,948.00
2018-02-09T08:05:42.474Z,968.00
2018-02-09T08:06:42.456Z,992.00
2018-02-09T08:07:42.478Z,1008.00
2018-02-09T08:08:42.819Z,1016.00
2018-02-09T08:09:42.539Z,1028.00
2018-02-09T08:10:42.586Z,1040.00
2018-02-09T08:11:42.606Z,1052.00
2018-02-09T08:12:42.633Z,1064.00
2018-02-09T08:13:42.665Z,1080.00
2018-02-09T08:14:42.688Z,1080.00
2018-02-09T08:15:43.069Z,1084.00
2018-02-09T08:16:42.768Z,1088.00
2018-02-09T08:17:42.835Z,1088.00
2018-02-09T08:18:42.813Z,1080.00
2018-02-09T08:19:42.855Z,1068.00
2018-02-09T08:20:42.867Z,1056.00
2018-02-09T08:21:42.914Z,1044.00
2018-02-09T08:22:43.229Z,1052.00
2018-02-09T08:23:42.966Z,1060.00
2018-02-09T08:24:42.994Z,1068.00
2018-02-09T08:25:43.041Z,1076.00
2018-02-09T08:26:43.151Z,1088.00
2018-02-09T08:27:43.075Z,1092.00
2018-02-09T08:28:43.405Z,1100.00
2018-02-09T08:29:43.142Z,1116.00
2018-02-09T08:30:43.164Z,1132.00
2018-02-09T08:31:43.211Z,1156.00
2018-02-09T08:32:43.227Z,1176.00
2018-02-09T08:33:43.259Z,1196.00
2018-02-09T08:34:43.599Z,1204.00
2018-02-09T08:35:43.328Z,1216.00
2018-02-09T08:36:43.345Z,1224.00
2018-02-09T08:37:43.376Z,1232.00
2018-02-09T08:38:43.404Z,1224.00
2018-02-09T08:39:43.450Z,1236.00
2018-02-09T08:40:43.767Z,1252.00
2018-02-09T08:41:43.491Z,1268.00
2018-02-09T08:42:43.773Z,1276.00
2018-02-09T08:43:43.568Z,1276.00
2018-02-09T08:44:43.583Z,1264.00
2018-02-09T08:45:43.618Z,1260.00
2018-02-09T08:46:43.943Z,1268.00
2018-02-09T08:47:43.672Z,1284.00
2018-02-09T08:48:43.709Z,1304.00
2018-02-09T08:49:43.733Z,1328.00
2018-02-09T08:50:43.765Z,1344.00
2018-02-09T08:51:43.822Z,1360.00
2018-02-09T08:52:43.837Z,1368.00
2018-02-09T08:53:44.260Z,1380.00
2018-02-09T08:54:43.888Z,1396.00
2018-02-09T08:55:43.913Z,1420.00
2018-02-09T08:56:43.940Z,1452.00
2018-02-09T08:57:43.980Z,1484.00
2018-02-09T08:58:44.161Z,1500.00
2018-02-09T08:59:44.392Z,1504.00
2018-02-09T09:00:44.077Z,1508.00
2018-02-09T09:01:44.093Z,1500.00
2018-02-09T09:02:44.121Z,1496.00
2018-02-09T09:03:44.154Z,1508.00
2018-02-09T09:04:44.412Z,1524.00
2018-02-09T09:05:44.506Z,1548.00
2018-02-09T09:06:44.273Z,1572.00
2018-02-09T09:07:44.273Z,1588.00
2018-02-09T09:08:44.302Z,1608.00
2018-02-09T09:09:44.327Z,1624.00
2018-02-09T09:10:44.357Z,1624.00
2018-02-09T09:11:44.687Z,1636.00
2018-02-09T09:12:44.425Z,1648.00
2018-02-09T09:13:44.446Z,1668.00
2018-02-09T09:14:44.485Z,1680.00
2018-02-09T09:15:44.512Z,1700.00
2018-02-09T09:16:44.543Z,1716.00
2018-02-09T09:17:44.878Z,1732.00
2018-02-09T09:18:44.618Z,1744.00
2018-02-09T09:19:44.627Z,1748.00
2018-02-09T09:20:44.705Z,1752.00
2018-02-09T09:21:44.694Z,1756.00
2018-02-09T09:22:44.719Z,1748.00
2018-02-09T09:23:45.081Z,1748.00
2018-02-09T09:24:44.775Z,1748.00
2018-02-09T09:25:44.805Z,1732.00
2018-02-09T09:26:44.833Z,1716.00
2018-02-09T09:27:44.873Z,1692.00
2018-02-09T09:28:44.896Z,1648.00
2018-02-09T09:29:45.229Z,1604.00
2018-02-09T09:30:44.976Z,1544.00
2018-02-09T09:31:44.984Z,1504.00
2018-02-09T09:32:45.015Z,1512.00
2018-02-09T09:33:45.049Z,1536.00
2018-02-09T09:34:45.238Z,1564.00
2018-02-09T09:35:45.105Z,1604.00
2018-02-09T09:36:45.156Z,1656.00
2018-02-09T09:37:45.176Z,1700.00
2018-02-09T09:38:45.196Z,1732.00
2018-02-09T09:39:45.301Z,1764.00
2018-02-09T09:40:45.559Z,1792.00
2018-02-09T09:41:45.306Z,1808.00
2018-02-09T09:42:45.311Z,1828.00
2018-02-09T09:43:45.342Z,1836.00
2018-02-09T09:44:45.424Z,1848.00
2018-02-09T09:45:45.505Z,1856.00
2018-02-09T09:46:45.434Z,1860.00
2018-02-09T09:47:45.781Z,1864.00
2018-02-09T09:48:45.610Z,1872.00
2018-02-09T09:49:45.526Z,1884.00
2018-02-09T09:50:45.572Z,1892.00
2018-02-09T09:51:45.594Z,1912.00
2018-02-09T09:52:45.637Z,1924.00
2018-02-09T09:53:45.944Z,1920.00
2018-02-09T09:54:45.689Z,1928.00
2018-02-09T09:55:45.721Z,1932.00
2018-02-09T09:56:45.737Z,1944.00
2018-02-09T09:57:45.771Z,1956.00
2018-02-09T09:58:45.799Z,1968.00
2018-02-09T09:59:46.122Z,1972.00
2018-02-09T10:00:45.855Z,1968.00
2018-02-09T10:01:45.958Z,1968.00
2018-02-09T10:02:45.910Z,1964.00
2018-02-09T10:03:45.944Z,1968.00
2018-02-09T10:04:45.979Z,1956.00
2018-02-09T10:05:46.320Z,1948.00
2018-02-09T10:06:46.041Z,1960.00
2018-02-09T10:07:46.060Z,2008.00
2018-02-09T10:08:46.087Z,2040.00
2018-02-09T10:09:46.119Z,2044.00
2018-02-09T10:10:46.153Z,2052.00
2018-02-09T10:11:46.486Z,2048.00
2018-02-09T10:12:46.283Z,2056.00
2018-02-09T10:13:46.242Z,2068.00
2018-02-09T10:14:46.297Z,2088.00
2018-02-09T10:15:46.307Z,2104.00
2018-02-09T10:16:46.341Z,2116.00
2018-02-09T10:17:46.671Z,2120.00
2018-02-09T10:18:46.395Z,2132.00
2018-02-09T10:19:46.421Z,2152.00
2018-02-09T10:20:46.460Z,2152.00
2018-02-09T10:21:46.481Z,2160.00
2018-02-09T10:22:46.508Z,2168.00
2018-02-09T10:23:46.838Z,2180.00
2018-02-09T10:24:46.587Z,2188.00
2018-02-09T10:25:46.598Z,2208.00
2018-02-09T10:26:46.639Z,2224.00
2018-02-09T10:27:46.659Z,2224.00
2018-02-09T10:28:46.689Z,2232.00
2018-02-09T10:29:47.020Z,2232.00
2018-02-09T10:30:46.754Z,2248.00
2018-02-09T10:31:46.783Z,2256.00
2018-02-09T10:32:46.817Z,2248.00
2018-02-09T10:33:46.837Z,2252.00
2018-02-09T10:34:46.867Z,2280.00
2018-02-09T10:35:47.208Z,2316.00
2018-02-09T10:36:46.935Z,2328.00
2018-02-09T10:37:46.959Z,2312.00
2018-02-09T10:38:47.094Z,2328.00
2018-02-09T10:39:47.025Z,2344.00
2018-02-09T10:40:47.098Z,2336.00
2018-02-09T10:41:47.377Z,2348.00
2018-02-09T10:42:47.159Z,2364.00
2018-02-09T10:43:47.141Z,2364.00
2018-02-09T10:44:47.172Z,2368.00
2018-02-09T10:45:47.219Z,2352.00
2018-02-09T10:46:47.239Z,2352.00
2018-02-09T10:47:47.566Z,2360.00
2018-02-09T10:48:47.295Z,2420.00
2018-02-09T10:49:47.324Z,2428.00
2018-02-09T10:50:47.356Z,2444.00
2018-02-09T10:51:47.382Z,2460.00
2018-02-09T10:52:47.414Z,2484.00
2018-02-09T10:53:47.746Z,2508.00
2018-02-09T10:54:47.483Z,2508.00
2018-02-09T10:55:47.515Z,2512.00
2018-02-09T10:56:47.577Z,2540.00
2018-02-09T10:57:47.557Z,2540.00
2018-02-09T10:58:47.593Z,2512.00
2018-02-09T10:59:47.921Z,2532.00
2018-02-09T11:00:47.658Z,2544.00
2018-02-09T11:01:47.700Z,2536.00
2018-02-09T11:02:47.716Z,2556.00
2018-02-09T11:03:47.740Z,2568.00
2018-02-09T11:04:47.959Z,2588.00
2018-02-09T11:05:48.105Z,2628.00
2018-02-09T11:06:47.828Z,2636.00
2018-02-09T11:07:47.887Z,2648.00
2018-02-09T11:08:47.893Z,2624.00
2018-02-09T11:09:47.919Z,2636.00
2018-02-09T11:10:47.957Z,2640.00
2018-02-09T11:11:48.280Z,2628.00
2018-02-09T11:12:48.014Z,2632.00
2018-02-09T11:13:48.056Z,2672.00
2018-02-09T11:14:48.071Z,2732.00
2018-02-09T11:15:48.113Z,2768.00
2018-02-09T11:16:48.218Z,2808.00
2018-02-09T11:17:48.470Z,2804.00
2018-02-09T11:18:48.248Z,2776.00
2018-02-09T11:19:48.224Z,2740.00
2018-02-09T11:20:48.257Z,2776.00
2018-02-09T11:21:48.297Z,2832.00
2018-02-09T11:22:48.312Z,2820.00
2018-02-09T11:23:48.693Z,2784.00
2018-02-09T11:24:48.373Z,2776.00
2018-02-09T11:25:48.405Z,2780.00
2018-02-09T11:26:48.460Z,2792.00
2018-02-09T11:27:48.465Z,2764.00
2018-02-09T11:28:48.616Z,2756.00
2018-02-09T11:29:48.874Z,2780.00
2018-02-09T11:30:48.556Z,2796.00
2018-02-09T11:31:48.614Z,2788.00
2018-02-09T11:32:48.624Z,2808.00
2018-02-09T11:33:48.745Z,2856.00
2018-02-09T11:34:48.683Z,2880.00
2018-02-09T11:35:49.008Z,2908.00
2018-02-09T11:36:48.768Z,2984.00
2018-02-09T11:37:48.773Z,3008.00
2018-02-09T11:38:48.795Z,2984.00
2018-02-09T11:39:48.826Z,2992.00
2018-02-09T11:40:48.858Z,2992.00
2018-02-09T11:41:49.191Z,2976.00
2018-02-09T11:42:48.924Z,2948.00
2018-02-09T11:43:49.095Z,2960.00
2018-02-09T11:44:48.980Z,3020.00
2018-02-09T11:45:49.020Z,3056.00
2018-02-09T11:46:49.077Z,3096.00
2018-02-09T11:47:49.378Z,3100.00
2018-02-09T11:48:49.108Z,3132.00
2018-02-09T11:49:49.131Z,3148.00
2018-02-09T11:50:49.160Z,3180.00
2018-02-09T11:51:49.193Z,3204.00
2018-02-09T11:52:49.238Z,3204.00
2018-02-09T11:53:49.252Z,3196.00
2018-02-09T11:54:49.581Z,3200.00
2018-02-09T11:55:49.316Z,3168.00
2018-02-09T11:56:49.345Z,3216.00
2018-02-09T11:57:49.370Z,3284.00
2018-02-09T11:58:49.654Z,3316.00
2018-02-09T11:59:49.472Z,3340.00
2018-02-09T12:00:49.761Z,3324.00
2018-02-09T12:01:49.491Z,3372.00
2018-02-09T12:02:49.525Z,3424.00
2018-02-09T12:03:49.562Z,3476.00
2018-02-09T12:04:49.582Z,3516.00
2018-02-09T12:05:49.616Z,3496.00
2018-02-09T12:06:49.654Z,3344.00
2018-02-09T12:07:49.678Z,3320.00
2018-02-09T12:08:49.714Z,3392.00
2018-02-09T12:09:49.837Z,3468.00
2018-02-09T12:10:49.783Z,3516.00
2018-02-09T12:11:50.110Z,3488.00
2018-02-09T12:12:49.827Z,3460.00
2018-02-09T12:13:49.862Z,3496.00
2018-02-09T12:14:49.887Z,3588.00
2018-02-09T12:15:49.938Z,3620.00
2018-02-09T12:16:49.946Z,3556.00
2018-02-09T12:17:50.277Z,3504.00
2018-02-09T12:18:50.013Z,3512.00
2018-02-09T12:19:50.101Z,3508.00
2018-02-09T12:20:50.125Z,3556.00
2018-02-09T12:21:50.100Z,3608.00
2018-02-09T12:22:50.137Z,3640.00
2018-02-09T12:23:50.464Z,3636.00
2018-02-09T12:24:50.194Z,3608.00
2018-02-09T12:25:50.221Z,3596.00
2018-02-09T12:26:50.259Z,3616.00
2018-02-09T12:27:50.280Z,3608.00
2018-02-09T12:28:50.312Z,3568.00
2018-02-09T12:29:50.716Z,3656.00
2018-02-09T12:30:50.378Z,3772.00
2018-02-09T12:31:50.402Z,3852.00
2018-02-09T12:32:50.437Z,3856.00
2018-02-09T12:33:50.471Z,3856.00
2018-02-09T12:34:50.598Z,3852.00
2018-02-09T12:35:50.841Z,3864.00
2018-02-09T12:36:50.560Z,3876.00
2018-02-09T12:37:50.586Z,3896.00
2018-02-09T12:38:50.649Z,3820.00
2018-02-09T12:39:50.650Z,3728.00
2018-02-09T12:40:50.682Z,3760.00
2018-02-09T12:41:51.009Z,3832.00
2018-02-09T12:42:50.736Z,3912.00
2018-02-09T12:43:50.782Z,3976.00
2018-02-09T12:44:50.805Z,4056.00
2018-02-09T12:45:50.832Z,4088.00
2018-02-09T12:46:50.867Z,4080.00
2018-02-09T12:47:51.206Z,4028.00
2018-02-09T12:48:50.984Z,4020.00
2018-02-09T12:49:51.219Z,4064.00
2018-02-09T12:50:50.985Z,4064.00
2018-02-09T12:51:51.039Z,4132.00
2018-02-09T12:52:51.051Z,4236.00